ADDS METAR Data INFO
IDs: Format: Raw Decoded Include TAF

Data at: 0932 UTC 17 Aug 2018

KECP 170853Z AUTO 00000KT 9SM CLR 23/22 A3013 RMK AO2 SLP214 T02330222 55002